createdAt,value
2022-09-28T00:01:43.705Z,100.00
2022-09-28T00:04:13.200Z,100.00
2022-09-28T00:06:42.230Z,100.00
2022-09-28T00:09:11.513Z,100.00
2022-09-28T00:11:40.988Z,100.00
2022-09-28T00:14:12.120Z,100.00
2022-09-28T00:16:44.431Z,100.00
2022-09-28T00:19:14.247Z,100.00
2022-09-28T00:21:44.050Z,100.00
2022-09-28T00:24:16.034Z,100.00
2022-09-28T00:26:48.544Z,100.00
2022-09-28T00:29:23.469Z,100.00
2022-09-28T00:31:57.270Z,100.00
2022-09-28T00:34:27.298Z,100.00
2022-09-28T00:36:56.386Z,100.00
2022-09-28T00:39:26.955Z,100.00
2022-09-28T00:41:56.569Z,100.00
2022-09-28T00:45:00.786Z,100.00
2022-09-28T00:47:43.317Z,100.00
2022-09-28T00:50:19.335Z,100.00
2022-09-28T00:52:54.260Z,100.00
2022-09-28T00:55:31.897Z,100.00
2022-09-28T00:58:04.694Z,100.00
2022-09-28T01:00:36.587Z,100.00
2022-09-28T01:03:06.307Z,100.00
2022-09-28T01:05:37.844Z,100.00
2022-09-28T01:08:08.381Z,100.00
2022-09-28T01:10:37.593Z,100.00
2022-09-28T01:13:06.596Z,100.00
2022-09-28T01:15:44.322Z,100.00
2022-09-28T01:18:23.791Z,100.00
2022-09-28T01:21:02.294Z,100.00
2022-09-28T01:24:10.878Z,100.00
2022-09-28T01:26:57.480Z,100.00
2022-09-28T01:29:39.853Z,100.00
2022-09-28T01:32:16.798Z,100.00
2022-09-28T01:34:53.671Z,100.00
2022-09-28T01:37:27.688Z,100.00
2022-09-28T01:39:59.503Z,100.00
2022-09-28T01:42:34.094Z,100.00
2022-09-28T01:45:12.354Z,100.00
2022-09-28T01:47:42.204Z,100.00
2022-09-28T01:50:15.496Z,100.00
2022-09-28T01:52:50.537Z,100.00
2022-09-28T01:55:29.362Z,100.00
2022-09-28T01:58:04.553Z,100.00
2022-09-28T02:00:36.616Z,100.00
2022-09-28T02:03:12.430Z,100.00
2022-09-28T02:05:50.483Z,100.00
2022-09-28T02:08:26.927Z,100.00
2022-09-28T02:11:01.388Z,100.00
2022-09-28T02:13:36.400Z,100.00
2022-09-28T02:16:11.832Z,100.00
2022-09-28T02:18:42.745Z,100.00
2022-09-28T02:21:21.760Z,100.00
2022-09-28T02:23:57.432Z,100.00
2022-09-28T02:26:38.671Z,100.00
2022-09-28T02:29:09.274Z,100.00
2022-09-28T02:31:38.438Z,100.00
2022-09-28T02:34:07.619Z,100.00
2022-09-28T02:36:37.061Z,100.00
2022-09-28T02:39:06.645Z,100.00
2022-09-28T02:41:49.557Z,100.00
2022-09-28T02:44:43.060Z,100.00
2022-09-28T02:47:28.245Z,100.00
2022-09-28T02:50:09.031Z,100.00
2022-09-28T02:53:04.598Z,100.00
2022-09-28T02:55:44.611Z,100.00
2022-09-28T02:58:26.130Z,100.00
2022-09-28T03:01:04.300Z,100.00
2022-09-28T03:03:43.194Z,100.00
2022-09-28T03:06:21.315Z,100.00
2022-09-28T03:08:59.027Z,100.00
2022-09-28T03:11:37.572Z,100.00
2022-09-28T03:14:07.653Z,100.00
2022-09-28T03:16:47.238Z,100.00
2022-09-28T03:19:20.311Z,100.00
2022-09-28T03:21:49.418Z,100.00
2022-09-28T03:24:18.539Z,100.00
2022-09-28T03:26:47.529Z,100.00
2022-09-28T03:29:17.294Z,100.00
2022-09-28T03:31:50.469Z,100.00
2022-09-28T03:34:19.663Z,100.00
2022-09-28T03:36:48.634Z,100.00
2022-09-28T03:39:17.683Z,100.00
2022-09-28T03:41:46.681Z,100.00
2022-09-28T03:44:16.169Z,100.00
2022-09-28T03:46:45.235Z,100.00
2022-09-28T03:49:15.792Z,100.00
2022-09-28T03:51:44.826Z,100.00
2022-09-28T03:54:14.151Z,100.00
2022-09-28T03:56:43.411Z,100.00
2022-09-28T03:59:12.764Z,100.00
2022-09-28T04:01:41.840Z,100.00
2022-09-28T04:04:13.114Z,100.00
2022-09-28T04:06:43.507Z,100.00
2022-09-28T04:09:12.637Z,100.00
2022-09-28T04:12:02.314Z,100.00
2022-09-28T04:14:31.422Z,100.00
2022-09-28T04:17:00.429Z,100.00
2022-09-28T04:19:32.808Z,100.00
2022-09-28T04:22:24.220Z,100.00
2022-09-28T04:24:53.352Z,100.00
2022-09-28T04:27:40.126Z,100.00
2022-09-28T04:30:10.726Z,100.00
2022-09-28T04:32:40.889Z,100.00
2022-09-28T04:35:12.650Z,100.00
2022-09-28T04:37:43.043Z,100.00
2022-09-28T04:40:12.549Z,100.00
2022-09-28T04:42:41.677Z,100.00
2022-09-28T04:45:11.755Z,100.00
2022-09-28T04:47:45.081Z,100.00
2022-09-28T04:50:35.045Z,100.00
2022-09-28T04:53:23.198Z,100.00
2022-09-28T04:56:00.282Z,100.00
2022-09-28T04:58:30.383Z,100.00
2022-09-28T05:01:01.270Z,100.00
2022-09-28T05:03:56.498Z,100.00
2022-09-28T05:06:48.384Z,100.00
2022-09-28T05:09:19.060Z,100.00
2022-09-28T05:11:52.968Z,100.00
2022-09-28T05:14:24.428Z,100.00
2022-09-28T05:16:54.412Z,100.00
2022-09-28T05:19:38.322Z,100.00
2022-09-28T05:22:11.433Z,100.00
2022-09-28T05:24:46.381Z,100.00
2022-09-28T05:27:15.988Z,100.00
2022-09-28T05:29:48.296Z,100.00
2022-09-28T05:32:42.076Z,100.00
2022-09-28T05:35:21.968Z,100.00
2022-09-28T05:37:51.368Z,100.00
2022-09-28T05:40:21.861Z,100.00
2022-09-28T05:42:51.140Z,100.00
2022-09-28T05:45:20.141Z,100.00
2022-09-28T05:47:49.165Z,100.00
2022-09-28T05:50:21.313Z,100.00
2022-09-28T05:53:00.473Z,100.00
2022-09-28T05:55:31.245Z,100.00
2022-09-28T05:58:01.106Z,100.00
2022-09-28T06:00:32.730Z,100.00
2022-09-28T06:03:08.034Z,100.00
2022-09-28T06:05:39.636Z,100.00
2022-09-28T06:08:11.550Z,100.00
2022-09-28T06:10:46.427Z,100.00
2022-09-28T06:13:15.925Z,100.00
2022-09-28T06:15:46.363Z,100.00
2022-09-28T06:18:16.264Z,100.00
2022-09-28T06:21:05.886Z,100.00
2022-09-28T06:23:40.398Z,100.00
2022-09-28T06:26:11.454Z,100.00
2022-09-28T06:28:41.289Z,100.00
2022-09-28T06:31:11.775Z,100.00
2022-09-28T06:33:50.087Z,100.00
2022-09-28T06:36:20.826Z,100.00
2022-09-28T06:38:51.541Z,100.00
2022-09-28T06:41:24.476Z,100.00
2022-09-28T06:43:53.567Z,100.00
2022-09-28T06:46:41.553Z,100.00
2022-09-28T06:49:36.642Z,100.00
2022-09-28T06:52:34.800Z,100.00
2022-09-28T06:55:08.444Z,100.00
2022-09-28T06:57:44.580Z,100.00
2022-09-28T07:00:15.050Z,100.00
2022-09-28T07:02:46.978Z,100.00
2022-09-28T07:05:36.917Z,100.00
2022-09-28T07:08:24.585Z,100.00
2022-09-28T07:11:26.891Z,100.00
2022-09-28T07:14:28.732Z,100.00
2022-09-28T07:17:13.338Z,100.00
2022-09-28T07:19:44.542Z,100.00
2022-09-28T07:22:18.601Z,100.00
2022-09-28T07:24:49.254Z,100.00
2022-09-28T07:27:44.164Z,100.00
2022-09-28T07:30:21.347Z,100.00
2022-09-28T07:33:12.484Z,100.00
2022-09-28T07:35:53.199Z,100.00
2022-09-28T07:38:25.988Z,100.00
2022-09-28T07:41:17.984Z,100.00
2022-09-28T07:43:52.221Z,100.00
2022-09-28T07:46:23.282Z,100.00
2022-09-28T07:49:08.387Z,100.00
2022-09-28T07:52:02.088Z,100.00
2022-09-28T07:54:31.203Z,100.00
2022-09-28T07:57:18.787Z,100.00
2022-09-28T07:59:53.653Z,100.00
2022-09-28T08:02:48.280Z,100.00
2022-09-28T08:05:25.747Z,100.00
2022-09-28T08:07:57.740Z,100.00
2022-09-28T08:10:27.567Z,100.00
2022-09-28T08:13:18.741Z,100.00
2022-09-28T08:16:08.253Z,100.00
2022-09-28T08:18:43.723Z,100.00
2022-09-28T08:21:30.368Z,100.00
2022-09-28T08:23:59.426Z,100.00
2022-09-28T08:26:28.981Z,100.00
2022-09-28T08:28:58.167Z,100.00
2022-09-28T08:31:49.526Z,100.00
2022-09-28T08:34:39.284Z,100.00
2022-09-28T08:37:11.544Z,100.00
2022-09-28T08:39:40.571Z,100.00
2022-09-28T08:42:41.607Z,100.00
2022-09-28T08:45:46.074Z,100.00
2022-09-28T08:49:13.547Z,100.00
2022-09-28T08:52:13.436Z,100.00
2022-09-28T08:54:59.645Z,100.00
2022-09-28T08:57:41.933Z,100.00
2022-09-28T09:00:20.738Z,100.00
2022-09-28T09:02:50.705Z,100.00
2022-09-28T09:05:25.929Z,98.89
2022-09-28T09:08:20.665Z,99.58
2022-09-28T09:10:53.955Z,100.00
2022-09-28T09:14:03.982Z,98.98
2022-09-28T09:16:41.219Z,98.17
2022-09-28T09:19:18.384Z,96.34
2022-09-28T09:22:17.353Z,94.45
2022-09-28T09:24:53.181Z,93.91
2022-09-28T09:27:42.349Z,92.20
2022-09-28T09:30:16.676Z,91.59
2022-09-28T09:33:13.173Z,91.40
2022-09-28T09:36:13.226Z,92.20
2022-09-28T09:39:11.627Z,94.12
2022-09-28T09:42:13.505Z,95.36
2022-09-28T09:45:19.867Z,92.07
2022-09-28T09:48:14.121Z,90.02
2022-09-28T09:50:50.207Z,89.51
2022-09-28T09:53:25.392Z,88.74
2022-09-28T09:55:59.443Z,85.84
2022-09-28T09:59:07.256Z,82.64
2022-09-28T10:01:48.116Z,83.61
2022-09-28T10:04:25.106Z,86.07
2022-09-28T10:07:02.638Z,88.34
2022-09-28T10:09:37.845Z,86.03
2022-09-28T10:12:24.013Z,87.21
2022-09-28T10:14:56.228Z,88.57
2022-09-28T10:17:29.076Z,89.69
2022-09-28T10:20:18.945Z,91.92
2022-09-28T10:23:04.319Z,88.25
2022-09-28T10:25:38.429Z,88.96
2022-09-28T10:28:08.589Z,87.04
2022-09-28T10:30:42.119Z,82.47
2022-09-28T10:33:30.043Z,80.06
2022-09-28T10:36:00.632Z,80.60
2022-09-28T10:38:34.396Z,79.16
2022-09-28T10:41:16.632Z,78.06
2022-09-28T10:44:09.334Z,82.39
2022-09-28T10:47:18.265Z,80.39
2022-09-28T10:49:50.899Z,81.11
2022-09-28T10:52:38.596Z,83.53
2022-09-28T10:55:33.337Z,81.25
2022-09-28T10:58:18.468Z,75.21
2022-09-28T11:00:50.295Z,75.38
2022-09-28T11:03:25.964Z,74.87
2022-09-28T11:05:58.778Z,70.90
2022-09-28T11:08:31.423Z,75.66
2022-09-28T11:11:12.403Z,76.49
2022-09-28T11:13:45.336Z,79.96
2022-09-28T11:16:29.778Z,77.40
2022-09-28T11:19:06.138Z,77.75
2022-09-28T11:21:43.979Z,77.81
2022-09-28T11:24:22.064Z,79.73
2022-09-28T11:26:56.338Z,81.27
2022-09-28T11:29:35.733Z,79.31
2022-09-28T11:32:32.985Z,80.05
2022-09-28T11:35:26.905Z,78.12
2022-09-28T11:38:14.405Z,79.60
2022-09-28T11:41:46.108Z,76.47
2022-09-28T11:44:38.674Z,80.21
2022-09-28T11:47:41.748Z,76.34
2022-09-28T11:50:29.326Z,67.08
2022-09-28T11:53:11.702Z,64.70
2022-09-28T11:55:46.495Z,63.35
2022-09-28T11:58:27.257Z,61.87
2022-09-28T12:01:03.703Z,63.83
2022-09-28T12:03:51.429Z,62.09
2022-09-28T12:06:52.539Z,64.22
2022-09-28T12:09:44.604Z,65.33
2022-09-28T12:12:26.272Z,62.18
2022-09-28T12:15:06.254Z,63.75
2022-09-28T12:17:41.915Z,60.58
2022-09-28T12:20:19.492Z,62.61
2022-09-28T12:23:01.480Z,60.48
2022-09-28T12:25:40.793Z,65.73
2022-09-28T12:28:19.370Z,66.15
2022-09-28T12:30:50.370Z,62.53
2022-09-28T12:33:19.448Z,59.87
2022-09-28T12:36:06.361Z,58.46
2022-09-28T12:39:17.683Z,59.50
2022-09-28T12:41:59.958Z,61.31
2022-09-28T12:44:48.150Z,59.66
2022-09-28T12:47:36.184Z,58.19
2022-09-28T12:50:38.055Z,60.17
2022-09-28T12:53:31.770Z,59.87
2022-09-28T12:56:06.298Z,60.07
2022-09-28T12:59:00.027Z,60.96
2022-09-28T13:01:47.329Z,65.16
2022-09-28T13:05:01.513Z,62.11
2022-09-28T13:07:40.157Z,63.30
2022-09-28T13:10:19.553Z,63.40
2022-09-28T13:13:09.678Z,63.06
2022-09-28T13:15:43.951Z,64.53
2022-09-28T13:18:21.842Z,65.68
2022-09-28T13:21:05.768Z,68.68
2022-09-28T13:23:40.305Z,67.90
2022-09-28T13:26:18.100Z,68.79
2022-09-28T13:28:50.209Z,68.57
2022-09-28T13:31:22.323Z,66.67
2022-09-28T13:33:53.735Z,67.45
2022-09-28T13:36:47.134Z,69.51
2022-09-28T13:39:48.762Z,72.69
2022-09-28T13:42:57.212Z,72.41
2022-09-28T13:45:53.628Z,72.64
2022-09-28T13:48:25.490Z,73.10
2022-09-28T13:51:27.423Z,73.35
2022-09-28T13:54:25.706Z,74.12
2022-09-28T13:57:03.965Z,74.77
2022-09-28T13:59:43.433Z,77.11
2022-09-28T14:02:29.567Z,74.75
2022-09-28T14:05:00.663Z,76.18
2022-09-28T14:07:58.580Z,72.17
2022-09-28T14:10:51.706Z,71.90
2022-09-28T14:13:58.109Z,71.74
2022-09-28T14:16:31.126Z,67.09
2022-09-28T14:19:07.149Z,64.69
2022-09-28T14:22:10.473Z,70.11
2022-09-28T14:25:12.210Z,72.46
2022-09-28T14:28:02.256Z,71.85
2022-09-28T14:30:48.304Z,70.54
2022-09-28T14:33:25.463Z,73.12
2022-09-28T14:35:58.312Z,70.95
2022-09-28T14:38:49.324Z,73.22
2022-09-28T14:41:33.758Z,74.46
2022-09-28T14:44:13.472Z,76.11
2022-09-28T14:46:44.708Z,74.68
2022-09-28T14:49:47.491Z,70.79
2022-09-28T14:52:36.080Z,68.75
2022-09-28T14:55:12.152Z,69.92
2022-09-28T14:57:43.511Z,68.57
2022-09-28T15:00:21.493Z,66.58
2022-09-28T15:02:52.643Z,67.66
2022-09-28T15:05:25.172Z,66.45
2022-09-28T15:07:56.405Z,65.84
2022-09-28T15:10:32.418Z,65.90
2022-09-28T15:13:02.843Z,65.01
2022-09-28T15:15:35.555Z,63.80
2022-09-28T15:18:21.580Z,65.40
2022-09-28T15:20:51.187Z,67.13
2022-09-28T15:23:34.994Z,69.46
2022-09-28T15:26:07.283Z,70.23
2022-09-28T15:28:39.242Z,70.94
2022-09-28T15:31:08.293Z,71.55
2022-09-28T15:33:55.102Z,71.17
2022-09-28T15:36:27.845Z,67.92
2022-09-28T15:39:01.783Z,67.17
2022-09-28T15:41:31.177Z,65.75
2022-09-28T15:44:30.272Z,65.55
2022-09-28T15:47:14.749Z,66.26
2022-09-28T15:49:47.925Z,70.39
2022-09-28T15:52:36.090Z,72.55
2022-09-28T15:55:19.689Z,73.39
2022-09-28T15:57:48.978Z,72.21
2022-09-28T16:00:27.320Z,72.67
2022-09-28T16:03:02.013Z,73.87
2022-09-28T16:05:45.290Z,74.32
2022-09-28T16:08:21.266Z,75.68
2022-09-28T16:10:58.842Z,74.37
2022-09-28T16:13:28.284Z,76.24
2022-09-28T16:16:01.425Z,78.60
2022-09-28T16:18:33.740Z,76.94
2022-09-28T16:21:32.012Z,76.57
2022-09-28T16:24:01.349Z,76.25
2022-09-28T16:26:35.382Z,76.90
2022-09-28T16:29:10.426Z,77.65
2022-09-28T16:31:43.144Z,78.87
2022-09-28T16:34:20.683Z,79.03
2022-09-28T16:36:51.336Z,79.63
2022-09-28T16:39:21.759Z,81.59
2022-09-28T16:41:55.597Z,81.41
2022-09-28T16:44:27.209Z,83.83
2022-09-28T16:47:00.132Z,84.42
2022-09-28T16:49:32.092Z,85.96
2022-09-28T16:52:01.231Z,85.24
2022-09-28T16:54:48.634Z,85.13
2022-09-28T16:57:18.970Z,86.03
2022-09-28T16:59:47.876Z,85.51
2022-09-28T17:02:42.353Z,87.16
2022-09-28T17:05:08.751Z,88.03
2022-09-28T17:07:37.780Z,90.14
2022-09-28T17:10:18.346Z,91.22
2022-09-28T17:12:48.669Z,92.46
2022-09-28T17:15:19.422Z,93.64
2022-09-28T17:17:48.805Z,94.99
2022-09-28T17:20:22.406Z,94.82
2022-09-28T17:22:51.876Z,94.79
2022-09-28T17:25:21.813Z,94.56
2022-09-28T17:27:52.811Z,95.50
2022-09-28T17:30:23.743Z,95.14
2022-09-28T17:32:54.592Z,96.02
2022-09-28T17:35:25.133Z,96.12
2022-09-28T17:37:54.524Z,98.08
2022-09-28T17:40:25.520Z,97.86
2022-09-28T17:42:56.410Z,98.81
2022-09-28T17:45:26.906Z,100.00
2022-09-28T17:47:56.428Z,99.27
2022-09-28T17:50:27.772Z,99.58
2022-09-28T17:52:59.725Z,100.00
2022-09-28T17:55:31.507Z,100.00
2022-09-28T17:58:04.309Z,100.00
2022-09-28T18:00:35.140Z,100.00
2022-09-28T18:03:04.592Z,100.00
2022-09-28T18:05:33.937Z,100.00
2022-09-28T18:08:04.526Z,100.00
2022-09-28T18:10:34.292Z,100.00
2022-09-28T18:13:04.937Z,100.00
2022-09-28T18:15:34.259Z,100.00
2022-09-28T18:18:03.614Z,100.00
2022-09-28T18:20:35.486Z,100.00
2022-09-28T18:23:04.618Z,100.00
2022-09-28T18:25:33.709Z,100.00
2022-09-28T18:28:04.229Z,100.00
2022-09-28T18:30:33.627Z,100.00
2022-09-28T18:33:02.816Z,100.00
2022-09-28T18:35:32.450Z,100.00
2022-09-28T18:38:01.713Z,100.00
2022-09-28T18:40:32.050Z,100.00
2022-09-28T18:43:01.253Z,100.00
2022-09-28T18:45:31.937Z,100.00
2022-09-28T18:48:01.288Z,100.00
2022-09-28T18:50:30.537Z,100.00
2022-09-28T18:53:11.511Z,100.00
2022-09-28T18:55:42.158Z,100.00
2022-09-28T18:58:12.510Z,100.00
2022-09-28T19:00:43.545Z,100.00
2022-09-28T19:03:14.378Z,100.00
2022-09-28T19:05:45.508Z,100.00
2022-09-28T19:08:17.111Z,100.00
2022-09-28T19:10:49.344Z,100.00
2022-09-28T19:13:18.517Z,100.00
2022-09-28T19:15:48.862Z,100.00
2022-09-28T19:18:18.576Z,100.00
2022-09-28T19:20:47.523Z,100.00
2022-09-28T19:23:16.718Z,100.00
2022-09-28T19:25:45.757Z,100.00
2022-09-28T19:28:14.779Z,100.00
2022-09-28T19:30:55.946Z,100.00
2022-09-28T19:33:25.654Z,100.00
2022-09-28T19:35:59.444Z,100.00
2022-09-28T19:38:30.238Z,100.00
2022-09-28T19:40:59.605Z,100.00
2022-09-28T19:43:30.173Z,100.00
2022-09-28T19:46:06.085Z,100.00
2022-09-28T19:48:36.342Z,100.00
2022-09-28T19:51:08.127Z,100.00
2022-09-28T19:53:37.867Z,100.00
2022-09-28T19:56:10.301Z,100.00
2022-09-28T19:58:39.366Z,100.00
2022-09-28T20:01:10.086Z,100.00
2022-09-28T20:03:39.615Z,100.00
2022-09-28T20:06:08.922Z,100.00
2022-09-28T20:08:40.296Z,100.00
2022-09-28T20:11:11.609Z,100.00
2022-09-28T20:13:40.587Z,100.00
2022-09-28T20:16:12.962Z,100.00
2022-09-28T20:18:49.533Z,100.00
2022-09-28T20:21:24.937Z,100.00
2022-09-28T20:23:56.216Z,100.00
2022-09-28T20:26:26.449Z,100.00
2022-09-28T20:28:56.443Z,100.00
2022-09-28T20:31:27.460Z,100.00
2022-09-28T20:33:56.706Z,100.00
2022-09-28T20:36:26.619Z,100.00
2022-09-28T20:38:58.300Z,100.00
2022-09-28T20:41:27.413Z,100.00
2022-09-28T20:44:04.119Z,100.00
2022-09-28T20:46:36.344Z,100.00
2022-09-28T20:49:07.046Z,100.00
2022-09-28T20:51:36.004Z,100.00
2022-09-28T20:54:05.169Z,100.00
2022-09-28T20:56:38.067Z,100.00
2022-09-28T20:59:09.320Z,100.00
2022-09-28T21:01:39.959Z,100.00
2022-09-28T21:04:10.483Z,100.00
2022-09-28T21:06:41.537Z,100.00
2022-09-28T21:09:12.257Z,100.00
2022-09-28T21:11:41.462Z,100.00
2022-09-28T21:14:10.868Z,100.00
2022-09-28T21:16:41.334Z,100.00
2022-09-28T21:19:10.293Z,100.00
2022-09-28T21:21:39.219Z,100.00
2022-09-28T21:24:08.843Z,100.00
2022-09-28T21:26:38.981Z,100.00
2022-09-28T21:29:11.569Z,100.00
2022-09-28T21:31:45.565Z,100.00
2022-09-28T21:34:19.049Z,100.00
2022-09-28T21:36:51.230Z,100.00
2022-09-28T21:39:21.036Z,100.00
2022-09-28T21:41:50.234Z,100.00
2022-09-28T21:44:19.316Z,100.00
2022-09-28T21:46:49.714Z,100.00
2022-09-28T21:49:19.553Z,100.00
2022-09-28T21:51:48.516Z,100.00
2022-09-28T21:54:17.448Z,100.00
2022-09-28T21:56:46.403Z,100.00
2022-09-28T21:59:15.391Z,100.00
2022-09-28T22:01:44.476Z,100.00
2022-09-28T22:04:14.960Z,100.00
2022-09-28T22:06:44.029Z,100.00
2022-09-28T22:09:13.148Z,100.00
2022-09-28T22:11:42.306Z,100.00
2022-09-28T22:14:11.864Z,100.00
2022-09-28T22:16:41.126Z,100.00
2022-09-28T22:19:10.294Z,100.00
2022-09-28T22:21:40.572Z,100.00
2022-09-28T22:24:10.324Z,100.00
2022-09-28T22:26:40.175Z,100.00
2022-09-28T22:29:10.605Z,100.00
2022-09-28T22:31:41.772Z,100.00
2022-09-28T22:34:11.189Z,100.00
2022-09-28T22:36:41.590Z,100.00
2022-09-28T22:39:10.517Z,100.00
2022-09-28T22:41:39.674Z,100.00
2022-09-28T22:44:08.788Z,100.00
2022-09-28T22:46:38.358Z,100.00
2022-09-28T22:49:07.571Z,100.00
2022-09-28T22:51:36.509Z,100.00
2022-09-28T22:54:07.266Z,100.00
2022-09-28T22:56:36.277Z,100.00
2022-09-28T22:59:05.385Z,100.00
2022-09-28T23:01:35.125Z,100.00
2022-09-28T23:04:04.266Z,100.00
2022-09-28T23:06:33.503Z,100.00
2022-09-28T23:09:02.995Z,100.00
2022-09-28T23:11:33.328Z,100.00
2022-09-28T23:14:04.063Z,100.00
2022-09-28T23:16:33.080Z,100.00
2022-09-28T23:19:02.195Z,100.00
2022-09-28T23:21:31.257Z,100.00
2022-09-28T23:24:01.863Z,100.00
2022-09-28T23:26:34.311Z,100.00
2022-09-28T23:29:03.410Z,100.00
2022-09-28T23:31:33.775Z,100.00
2022-09-28T23:34:05.220Z,100.00
2022-09-28T23:36:34.962Z,100.00
2022-09-28T23:39:04.799Z,100.00
2022-09-28T23:41:35.271Z,100.00
2022-09-28T23:44:04.569Z,100.00
2022-09-28T23:46:33.491Z,100.00
2022-09-28T23:49:02.702Z,100.00
2022-09-28T23:51:31.854Z,100.00
2022-09-28T23:54:04.343Z,100.00
2022-09-28T23:56:34.794Z,100.00
2022-09-28T23:59:03.754Z,100.00
